createdAt,value
2023-01-08T00:06:10.239Z,354
2023-01-08T00:26:10.247Z,351
2023-01-08T00:46:10.411Z,354
2023-01-08T01:06:10.295Z,348
2023-01-08T01:26:10.285Z,353
2023-01-08T01:46:10.355Z,351
2023-01-08T02:06:10.345Z,345
2023-01-08T02:26:10.366Z,345
2023-01-08T02:46:10.528Z,344
2023-01-08T03:06:10.435Z,347
2023-01-08T03:26:10.439Z,353
2023-01-08T03:46:10.474Z,346
2023-01-08T04:06:10.649Z,347
2023-01-08T04:26:10.519Z,347
2023-01-08T04:46:10.586Z,349
2023-01-08T05:06:10.666Z,351
2023-01-08T05:26:10.625Z,348
2023-01-08T05:46:10.676Z,349
2023-01-08T06:06:10.691Z,345
2023-01-08T06:26:10.666Z,344
2023-01-08T06:46:10.802Z,346
2023-01-08T07:06:10.520Z,348
2023-01-08T07:26:10.713Z,346
2023-01-08T07:46:10.847Z,346
2023-01-08T08:06:10.828Z,348
2023-01-08T08:26:10.810Z,354
2023-01-08T08:46:10.987Z,351
2023-01-08T09:06:10.852Z,352
2023-01-08T09:26:10.888Z,348
2023-01-08T09:46:10.924Z,352
2023-01-08T10:06:10.943Z,352
2023-01-08T10:26:10.981Z,356
2023-01-08T10:46:11.125Z,357
2023-01-08T11:06:11.005Z,353
2023-01-08T11:26:11.031Z,349
2023-01-08T11:46:11.100Z,355
2023-01-08T12:06:11.087Z,351
2023-01-08T12:26:11.120Z,351
2023-01-08T12:46:11.164Z,345
2023-01-08T13:06:11.177Z,344
2023-01-08T13:26:11.247Z,342
2023-01-08T13:46:11.333Z,345
2023-01-08T14:26:11.249Z,341
2023-01-08T14:46:10.855Z,339
2023-01-08T15:06:11.378Z,339
2023-01-08T15:26:11.300Z,341
2023-01-08T15:46:11.344Z,341
2023-01-08T16:06:11.382Z,337
2023-01-08T16:26:11.370Z,340
2023-01-08T16:46:11.437Z,341
2023-01-08T17:06:11.440Z,338
2023-01-08T17:26:11.439Z,334
2023-01-08T17:46:11.503Z,331
2023-01-08T18:06:11.293Z,337
2023-01-08T18:26:12.591Z,344
2023-01-08T18:46:11.591Z,335
2023-01-08T19:06:11.599Z,341
2023-01-08T19:26:11.613Z,341
2023-01-08T19:46:11.689Z,338
2023-01-08T20:06:11.674Z,339
2023-01-08T20:26:11.687Z,334
2023-01-08T20:46:11.699Z,337
2023-01-08T21:06:11.732Z,338
2023-01-08T21:26:11.806Z,338
2023-01-08T21:46:11.833Z,334
2023-01-08T22:06:11.819Z,335
2023-01-08T22:26:11.833Z,329
2023-01-08T22:46:11.883Z,335
2023-01-08T23:06:11.901Z,335
2023-01-08T23:26:11.903Z,333
2023-01-08T23:46:11.944Z,332
